sensor_id;sensor_type;location;lat;lon;timestamp;P1;durP1;ratioP1;P2;durP2;ratioP2
4555;SDS011;2290;48.674;9.018;2023-02-21T00:00:55;3.13;;;1.90;;
4555;SDS011;2290;48.674;9.018;2023-02-21T00:03:39;4.50;;;1.60;;
4555;SDS011;2290;48.674;9.018;2023-02-21T00:06:24;3.33;;;1.77;;
4555;SDS011;2290;48.674;9.018;2023-02-21T00:09:09;3.23;;;1.90;;
4555;SDS011;2290;48.674;9.018;2023-02-21T00:11:54;3.73;;;2.27;;
4555;SDS011;2290;48.674;9.018;2023-02-21T00:14:39;3.73;;;1.70;;
4555;SDS011;2290;48.674;9.018;2023-02-21T00:17:23;4.50;;;1.60;;
4555;SDS011;2290;48.674;9.018;2023-02-21T00:20:07;1.73;;;1.57;;
4555;SDS011;2290;48.674;9.018;2023-02-21T00:22:52;2.13;;;1.37;;
4555;SDS011;2290;48.674;9.018;2023-02-21T00:25:37;2.47;;;1.87;;
4555;SDS011;2290;48.674;9.018;2023-02-21T00:28:21;3.10;;;2.00;;
4555;SDS011;2290;48.674;9.018;2023-02-21T00:31:06;6.33;;;2.00;;
4555;SDS011;2290;48.674;9.018;2023-02-21T00:33:51;2.20;;;1.77;;
4555;SDS011;2290;48.674;9.018;2023-02-21T00:36:36;3.23;;;2.00;;
4555;SDS011;2290;48.674;9.018;2023-02-21T00:39:24;4.20;;;1.77;;
4555;SDS011;2290;48.674;9.018;2023-02-21T00:42:08;3.00;;;2.23;;
4555;SDS011;2290;48.674;9.018;2023-02-21T00:44:52;3.53;;;1.90;;
4555;SDS011;2290;48.674;9.018;2023-02-21T00:47:36;5.00;;;1.80;;
4555;SDS011;2290;48.674;9.018;2023-02-21T00:50:19;8.00;;;1.73;;
4555;SDS011;2290;48.674;9.018;2023-02-21T00:53:07;5.93;;;2.80;;
4555;SDS011;2290;48.674;9.018;2023-02-21T00:55:52;2.63;;;1.80;;
4555;SDS011;2290;48.674;9.018;2023-02-21T00:58:36;2.03;;;1.77;;
4555;SDS011;2290;48.674;9.018;2023-02-21T01:01:20;2.50;;;1.67;;
4555;SDS011;2290;48.674;9.018;2023-02-21T01:04:05;3.77;;;1.50;;
4555;SDS011;2290;48.674;9.018;2023-02-21T01:06:50;2.33;;;1.70;;
4555;SDS011;2290;48.674;9.018;2023-02-21T01:09:36;2.23;;;1.37;;
4555;SDS011;2290;48.674;9.018;2023-02-21T01:12:22;3.10;;;1.90;;
4555;SDS011;2290;48.674;9.018;2023-02-21T01:15:07;2.13;;;1.70;;
4555;SDS011;2290;48.674;9.018;2023-02-21T01:17:51;2.13;;;1.70;;
4555;SDS011;2290;48.674;9.018;2023-02-21T01:20:35;2.00;;;1.50;;
4555;SDS011;2290;48.674;9.018;2023-02-21T01:23:19;1.60;;;1.50;;
4555;SDS011;2290;48.674;9.018;2023-02-21T01:26:03;6.10;;;1.80;;
4555;SDS011;2290;48.674;9.018;2023-02-21T01:28:51;2.33;;;1.60;;
4555;SDS011;2290;48.674;9.018;2023-02-21T01:31:35;3.03;;;1.67;;
4555;SDS011;2290;48.674;9.018;2023-02-21T01:34:19;3.00;;;1.90;;
4555;SDS011;2290;48.674;9.018;2023-02-21T01:37:04;2.80;;;1.70;;
4555;SDS011;2290;48.674;9.018;2023-02-21T01:39:48;2.37;;;1.80;;
4555;SDS011;2290;48.674;9.018;2023-02-21T01:42:32;3.63;;;1.73;;
4555;SDS011;2290;48.674;9.018;2023-02-21T01:48:05;4.30;;;2.00;;
4555;SDS011;2290;48.674;9.018;2023-02-21T01:50:52;3.33;;;1.63;;
4555;SDS011;2290;48.674;9.018;2023-02-21T01:53:38;2.30;;;1.63;;
4555;SDS011;2290;48.674;9.018;2023-02-21T01:56:22;2.10;;;1.63;;
4555;SDS011;2290;48.674;9.018;2023-02-21T01:59:06;2.30;;;1.80;;
4555;SDS011;2290;48.674;9.018;2023-02-21T02:01:58;5.40;;;1.90;;
4555;SDS011;2290;48.674;9.018;2023-02-21T02:04:49;3.70;;;1.83;;
4555;SDS011;2290;48.674;9.018;2023-02-21T02:07:36;3.47;;;1.90;;
4555;SDS011;2290;48.674;9.018;2023-02-21T02:10:21;1.70;;;1.60;;
4555;SDS011;2290;48.674;9.018;2023-02-21T02:18:59;2.63;;;1.70;;
4555;SDS011;2290;48.674;9.018;2023-02-21T02:24:55;2.03;;;1.60;;
4555;SDS011;2290;48.674;9.018;2023-02-21T02:27:44;4.77;;;1.63;;
4555;SDS011;2290;48.674;9.018;2023-02-21T02:33:39;2.80;;;1.50;;
4555;SDS011;2290;48.674;9.018;2023-02-21T02:36:39;3.00;;;1.90;;
4555;SDS011;2290;48.674;9.018;2023-02-21T02:41:48;2.80;;;2.10;;
4555;SDS011;2290;48.674;9.018;2023-02-21T02:44:39;2.30;;;1.83;;
4555;SDS011;2290;48.674;9.018;2023-02-21T02:47:08;3.53;;;1.90;;
4555;SDS011;2290;48.674;9.018;2023-02-21T02:49:47;2.43;;;1.97;;
4555;SDS011;2290;48.674;9.018;2023-02-21T02:52:15;3.33;;;1.70;;
4555;SDS011;2290;48.674;9.018;2023-02-21T02:54:42;1.57;;;1.40;;
4555;SDS011;2290;48.674;9.018;2023-02-21T02:57:08;2.97;;;1.67;;
4555;SDS011;2290;48.674;9.018;2023-02-21T02:59:37;2.70;;;1.80;;
4555;SDS011;2290;48.674;9.018;2023-02-21T03:02:14;2.50;;;1.80;;
4555;SDS011;2290;48.674;9.018;2023-02-21T03:04:56;2.07;;;1.80;;
4555;SDS011;2290;48.674;9.018;2023-02-21T03:07:32;2.73;;;1.97;;
4555;SDS011;2290;48.674;9.018;2023-02-21T03:13:04;3.07;;;2.00;;
4555;SDS011;2290;48.674;9.018;2023-02-21T03:15:57;3.10;;;2.10;;
4555;SDS011;2290;48.674;9.018;2023-02-21T03:21:34;1.60;;;1.50;;
4555;SDS011;2290;48.674;9.018;2023-02-21T03:24:07;2.63;;;1.70;;
4555;SDS011;2290;48.674;9.018;2023-02-21T03:26:37;9.10;;;2.20;;
4555;SDS011;2290;48.674;9.018;2023-02-21T03:29:07;3.53;;;1.90;;
4555;SDS011;2290;48.674;9.018;2023-02-21T03:31:43;2.37;;;1.70;;
4555;SDS011;2290;48.674;9.018;2023-02-21T03:34:19;2.70;;;1.70;;
4555;SDS011;2290;48.674;9.018;2023-02-21T03:36:49;2.20;;;1.87;;
4555;SDS011;2290;48.674;9.018;2023-02-21T03:39:17;2.10;;;1.83;;
4555;SDS011;2290;48.674;9.018;2023-02-21T03:41:42;3.47;;;2.00;;
4555;SDS011;2290;48.674;9.018;2023-02-21T03:44:09;3.90;;;2.60;;
4555;SDS011;2290;48.674;9.018;2023-02-21T03:46:34;2.50;;;1.60;;
4555;SDS011;2290;48.674;9.018;2023-02-21T03:49:00;1.97;;;1.70;;
4555;SDS011;2290;48.674;9.018;2023-02-21T03:51:26;4.90;;;1.57;;
4555;SDS011;2290;48.674;9.018;2023-02-21T03:53:52;2.37;;;1.70;;
4555;SDS011;2290;48.674;9.018;2023-02-21T03:56:17;2.83;;;1.77;;
4555;SDS011;2290;48.674;9.018;2023-02-21T03:58:43;2.20;;;1.80;;
4555;SDS011;2290;48.674;9.018;2023-02-21T04:01:11;3.27;;;1.70;;
4555;SDS011;2290;48.674;9.018;2023-02-21T04:03:37;7.00;;;2.53;;
4555;SDS011;2290;48.674;9.018;2023-02-21T04:06:03;2.17;;;1.70;;
4555;SDS011;2290;48.674;9.018;2023-02-21T04:08:42;2.87;;;2.13;;
4555;SDS011;2290;48.674;9.018;2023-02-21T04:11:12;2.70;;;1.77;;
4555;SDS011;2290;48.674;9.018;2023-02-21T04:13:42;4.43;;;2.17;;
4555;SDS011;2290;48.674;9.018;2023-02-21T04:16:08;4.00;;;2.10;;
4555;SDS011;2290;48.674;9.018;2023-02-21T04:18:33;3.37;;;2.00;;
4555;SDS011;2290;48.674;9.018;2023-02-21T04:21:01;3.67;;;2.17;;
4555;SDS011;2290;48.674;9.018;2023-02-21T04:23:39;2.53;;;1.93;;
4555;SDS011;2290;48.674;9.018;2023-02-21T04:26:06;3.20;;;2.07;;
4555;SDS011;2290;48.674;9.018;2023-02-21T04:28:32;5.50;;;2.17;;
4555;SDS011;2290;48.674;9.018;2023-02-21T04:30:59;3.20;;;1.97;;
4555;SDS011;2290;48.674;9.018;2023-02-21T04:33:24;3.57;;;1.90;;
4555;SDS011;2290;48.674;9.018;2023-02-21T04:35:51;4.00;;;2.07;;
4555;SDS011;2290;48.674;9.018;2023-02-21T04:38:17;3.23;;;2.10;;
4555;SDS011;2290;48.674;9.018;2023-02-21T04:40:43;2.93;;;2.00;;
4555;SDS011;2290;48.674;9.018;2023-02-21T04:43:08;2.93;;;1.93;;
4555;SDS011;2290;48.674;9.018;2023-02-21T04:45:36;3.43;;;2.20;;
4555;SDS011;2290;48.674;9.018;2023-02-21T04:48:02;4.13;;;2.17;;
4555;SDS011;2290;48.674;9.018;2023-02-21T04:50:30;2.40;;;1.73;;
4555;SDS011;2290;48.674;9.018;2023-02-21T04:52:57;3.30;;;2.00;;
4555;SDS011;2290;48.674;9.018;2023-02-21T04:55:22;3.77;;;2.00;;
4555;SDS011;2290;48.674;9.018;2023-02-21T04:57:48;2.97;;;2.10;;
4555;SDS011;2290;48.674;9.018;2023-02-21T05:00:14;4.20;;;2.57;;
4555;SDS011;2290;48.674;9.018;2023-02-21T05:02:44;5.27;;;2.20;;
4555;SDS011;2290;48.674;9.018;2023-02-21T05:05:10;3.20;;;2.20;;
4555;SDS011;2290;48.674;9.018;2023-02-21T05:07:40;4.10;;;2.13;;
4555;SDS011;2290;48.674;9.018;2023-02-21T05:10:06;3.20;;;2.10;;
4555;SDS011;2290;48.674;9.018;2023-02-21T05:12:33;2.50;;;2.00;;
4555;SDS011;2290;48.674;9.018;2023-02-21T05:14:59;3.67;;;2.30;;
4555;SDS011;2290;48.674;9.018;2023-02-21T05:17:25;3.20;;;2.03;;
4555;SDS011;2290;48.674;9.018;2023-02-21T05:19:52;3.67;;;2.57;;
4555;SDS011;2290;48.674;9.018;2023-02-21T05:22:19;4.17;;;2.23;;
4555;SDS011;2290;48.674;9.018;2023-02-21T05:24:45;3.23;;;2.10;;
4555;SDS011;2290;48.674;9.018;2023-02-21T05:27:13;4.83;;;2.20;;
4555;SDS011;2290;48.674;9.018;2023-02-21T05:29:41;5.00;;;2.30;;
4555;SDS011;2290;48.674;9.018;2023-02-21T05:32:10;2.77;;;2.23;;
4555;SDS011;2290;48.674;9.018;2023-02-21T05:34:36;3.57;;;2.03;;
4555;SDS011;2290;48.674;9.018;2023-02-21T05:37:03;4.53;;;2.20;;
4555;SDS011;2290;48.674;9.018;2023-02-21T05:39:31;3.77;;;2.40;;
4555;SDS011;2290;48.674;9.018;2023-02-21T05:41:57;3.00;;;2.13;;
4555;SDS011;2290;48.674;9.018;2023-02-21T05:44:23;3.80;;;2.20;;
4555;SDS011;2290;48.674;9.018;2023-02-21T05:46:49;2.73;;;2.00;;
4555;SDS011;2290;48.674;9.018;2023-02-21T05:49:14;3.27;;;1.93;;
4555;SDS011;2290;48.674;9.018;2023-02-21T05:51:42;2.07;;;1.80;;
4555;SDS011;2290;48.674;9.018;2023-02-21T05:54:08;3.40;;;1.97;;
4555;SDS011;2290;48.674;9.018;2023-02-21T05:56:41;3.03;;;1.83;;
4555;SDS011;2290;48.674;9.018;2023-02-21T05:59:08;2.90;;;1.97;;
4555;SDS011;2290;48.674;9.018;2023-02-21T06:01:35;3.67;;;2.10;;
4555;SDS011;2290;48.674;9.018;2023-02-21T06:04:02;3.97;;;2.37;;
4555;SDS011;2290;48.674;9.018;2023-02-21T06:06:28;4.23;;;1.90;;
4555;SDS011;2290;48.674;9.018;2023-02-21T06:08:56;3.73;;;2.37;;
4555;SDS011;2290;48.674;9.018;2023-02-21T06:11:22;4.20;;;2.20;;
4555;SDS011;2290;48.674;9.018;2023-02-21T06:13:56;2.10;;;1.70;;
4555;SDS011;2290;48.674;9.018;2023-02-21T06:16:22;3.27;;;2.30;;
4555;SDS011;2290;48.674;9.018;2023-02-21T06:18:53;2.73;;;2.20;;
4555;SDS011;2290;48.674;9.018;2023-02-21T06:21:20;2.80;;;1.60;;
4555;SDS011;2290;48.674;9.018;2023-02-21T06:23:47;5.00;;;1.80;;
4555;SDS011;2290;48.674;9.018;2023-02-21T06:26:14;3.30;;;1.93;;
4555;SDS011;2290;48.674;9.018;2023-02-21T06:28:41;4.23;;;2.17;;
4555;SDS011;2290;48.674;9.018;2023-02-21T06:31:07;2.80;;;1.87;;
4555;SDS011;2290;48.674;9.018;2023-02-21T06:33:35;2.40;;;1.70;;
4555;SDS011;2290;48.674;9.018;2023-02-21T06:36:04;4.33;;;2.00;;
4555;SDS011;2290;48.674;9.018;2023-02-21T06:38:33;3.00;;;1.80;;
4555;SDS011;2290;48.674;9.018;2023-02-21T06:41:00;5.20;;;2.40;;
4555;SDS011;2290;48.674;9.018;2023-02-21T06:43:30;4.00;;;2.00;;
4555;SDS011;2290;48.674;9.018;2023-02-21T06:45:57;3.83;;;1.90;;
4555;SDS011;2290;48.674;9.018;2023-02-21T06:48:24;2.43;;;2.00;;
4555;SDS011;2290;48.674;9.018;2023-02-21T06:50:49;4.00;;;2.63;;
4555;SDS011;2290;48.674;9.018;2023-02-21T06:53:15;2.27;;;1.97;;
4555;SDS011;2290;48.674;9.018;2023-02-21T06:55:40;2.33;;;1.97;;
4555;SDS011;2290;48.674;9.018;2023-02-21T06:58:08;2.70;;;2.07;;
4555;SDS011;2290;48.674;9.018;2023-02-21T07:00:34;4.80;;;2.10;;
4555;SDS011;2290;48.674;9.018;2023-02-21T07:03:01;3.50;;;2.33;;
4555;SDS011;2290;48.674;9.018;2023-02-21T07:05:29;3.33;;;2.10;;
4555;SDS011;2290;48.674;9.018;2023-02-21T07:07:58;3.30;;;2.10;;
4555;SDS011;2290;48.674;9.018;2023-02-21T07:10:24;3.77;;;2.20;;
4555;SDS011;2290;48.674;9.018;2023-02-21T07:12:51;5.23;;;2.10;;
4555;SDS011;2290;48.674;9.018;2023-02-21T07:15:16;4.07;;;2.80;;
4555;SDS011;2290;48.674;9.018;2023-02-21T07:17:42;5.20;;;2.20;;
4555;SDS011;2290;48.674;9.018;2023-02-21T07:20:08;6.20;;;2.50;;
4555;SDS011;2290;48.674;9.018;2023-02-21T07:22:34;2.67;;;2.30;;
4555;SDS011;2290;48.674;9.018;2023-02-21T07:24:59;6.83;;;1.87;;
4555;SDS011;2290;48.674;9.018;2023-02-21T07:27:25;3.00;;;1.80;;
4555;SDS011;2290;48.674;9.018;2023-02-21T07:29:50;3.70;;;2.30;;
4555;SDS011;2290;48.674;9.018;2023-02-21T07:32:16;3.33;;;2.20;;
4555;SDS011;2290;48.674;9.018;2023-02-21T07:34:42;2.47;;;1.77;;
4555;SDS011;2290;48.674;9.018;2023-02-21T07:37:09;4.50;;;1.80;;
4555;SDS011;2290;48.674;9.018;2023-02-21T07:39:34;2.73;;;2.10;;
4555;SDS011;2290;48.674;9.018;2023-02-21T07:42:00;3.70;;;2.10;;
4555;SDS011;2290;48.674;9.018;2023-02-21T07:44:26;2.27;;;2.07;;
4555;SDS011;2290;48.674;9.018;2023-02-21T07:46:51;4.60;;;1.80;;
4555;SDS011;2290;48.674;9.018;2023-02-21T07:49:19;2.93;;;2.10;;
4555;SDS011;2290;48.674;9.018;2023-02-21T07:51:44;3.43;;;2.00;;
4555;SDS011;2290;48.674;9.018;2023-02-21T07:54:10;3.97;;;2.60;;
4555;SDS011;2290;48.674;9.018;2023-02-21T07:56:35;2.60;;;2.00;;
4555;SDS011;2290;48.674;9.018;2023-02-21T07:59:10;4.43;;;2.13;;
4555;SDS011;2290;48.674;9.018;2023-02-21T08:01:35;3.50;;;2.07;;
4555;SDS011;2290;48.674;9.018;2023-02-21T08:04:01;3.33;;;2.57;;
4555;SDS011;2290;48.674;9.018;2023-02-21T08:06:26;3.13;;;2.20;;
4555;SDS011;2290;48.674;9.018;2023-02-21T08:08:53;6.83;;;2.20;;
4555;SDS011;2290;48.674;9.018;2023-02-21T08:11:20;3.00;;;2.37;;
4555;SDS011;2290;48.674;9.018;2023-02-21T08:13:47;4.30;;;2.33;;
4555;SDS011;2290;48.674;9.018;2023-02-21T08:16:13;4.97;;;2.80;;
4555;SDS011;2290;48.674;9.018;2023-02-21T08:18:38;6.13;;;2.67;;
4555;SDS011;2290;48.674;9.018;2023-02-21T08:21:06;3.47;;;2.53;;
4555;SDS011;2290;48.674;9.018;2023-02-21T08:23:33;3.87;;;2.60;;
4555;SDS011;2290;48.674;9.018;2023-02-21T08:25:59;3.47;;;2.80;;
4555;SDS011;2290;48.674;9.018;2023-02-21T08:28:24;6.57;;;2.70;;
4555;SDS011;2290;48.674;9.018;2023-02-21T08:30:50;4.90;;;3.70;;
4555;SDS011;2290;48.674;9.018;2023-02-21T08:33:18;5.23;;;3.07;;
4555;SDS011;2290;48.674;9.018;2023-02-21T08:35:44;8.87;;;3.90;;
4555;SDS011;2290;48.674;9.018;2023-02-21T08:38:11;9.67;;;3.50;;
4555;SDS011;2290;48.674;9.018;2023-02-21T08:40:37;5.90;;;3.20;;
4555;SDS011;2290;48.674;9.018;2023-02-21T08:43:02;6.80;;;4.27;;
4555;SDS011;2290;48.674;9.018;2023-02-21T08:45:29;9.37;;;3.60;;
4555;SDS011;2290;48.674;9.018;2023-02-21T08:47:56;5.20;;;3.43;;
4555;SDS011;2290;48.674;9.018;2023-02-21T08:50:23;5.57;;;3.30;;
4555;SDS011;2290;48.674;9.018;2023-02-21T08:52:51;8.23;;;3.30;;
4555;SDS011;2290;48.674;9.018;2023-02-21T08:55:17;6.00;;;3.40;;
4555;SDS011;2290;48.674;9.018;2023-02-21T08:57:44;4.53;;;3.10;;
4555;SDS011;2290;48.674;9.018;2023-02-21T09:00:12;5.93;;;2.83;;
4555;SDS011;2290;48.674;9.018;2023-02-21T09:02:39;3.70;;;2.57;;
4555;SDS011;2290;48.674;9.018;2023-02-21T09:05:06;6.97;;;2.90;;
4555;SDS011;2290;48.674;9.018;2023-02-21T09:07:33;4.43;;;2.87;;
4555;SDS011;2290;48.674;9.018;2023-02-21T09:10:00;6.77;;;2.97;;
4555;SDS011;2290;48.674;9.018;2023-02-21T09:12:25;7.60;;;3.17;;
4555;SDS011;2290;48.674;9.018;2023-02-21T09:14:51;6.40;;;3.23;;
4555;SDS011;2290;48.674;9.018;2023-02-21T09:17:17;7.57;;;2.53;;
4555;SDS011;2290;48.674;9.018;2023-02-21T09:19:42;6.03;;;2.83;;
4555;SDS011;2290;48.674;9.018;2023-02-21T09:22:09;3.60;;;2.53;;
4555;SDS011;2290;48.674;9.018;2023-02-21T09:24:35;4.87;;;2.53;;
4555;SDS011;2290;48.674;9.018;2023-02-21T09:27:01;3.23;;;2.60;;
4555;SDS011;2290;48.674;9.018;2023-02-21T09:29:28;2.50;;;1.80;;
4555;SDS011;2290;48.674;9.018;2023-02-21T09:31:54;3.17;;;2.10;;
4555;SDS011;2290;48.674;9.018;2023-02-21T09:34:20;2.90;;;1.93;;
4555;SDS011;2290;48.674;9.018;2023-02-21T09:36:46;2.97;;;1.77;;
4555;SDS011;2290;48.674;9.018;2023-02-21T09:39:13;2.70;;;2.07;;
4555;SDS011;2290;48.674;9.018;2023-02-21T09:41:39;4.43;;;1.90;;
4555;SDS011;2290;48.674;9.018;2023-02-21T09:44:17;2.97;;;1.90;;
4555;SDS011;2290;48.674;9.018;2023-02-21T09:46:47;2.90;;;2.07;;
4555;SDS011;2290;48.674;9.018;2023-02-21T09:49:21;3.40;;;2.20;;
4555;SDS011;2290;48.674;9.018;2023-02-21T09:51:50;2.87;;;2.00;;
4555;SDS011;2290;48.674;9.018;2023-02-21T09:54:38;1.80;;;1.50;;
4555;SDS011;2290;48.674;9.018;2023-02-21T09:57:09;1.93;;;1.50;;
4555;SDS011;2290;48.674;9.018;2023-02-21T09:59:39;2.20;;;1.70;;
4555;SDS011;2290;48.674;9.018;2023-02-21T10:04:56;1.53;;;1.37;;
4555;SDS011;2290;48.674;9.018;2023-02-21T10:10:42;3.73;;;1.33;;
4555;SDS011;2290;48.674;9.018;2023-02-21T10:16:16;2.90;;;1.40;;
4555;SDS011;2290;48.674;9.018;2023-02-21T10:21:35;1.53;;;1.17;;
4555;SDS011;2290;48.674;9.018;2023-02-21T10:24:09;2.10;;;1.30;;
4555;SDS011;2290;48.674;9.018;2023-02-21T10:26:37;1.63;;;1.50;;
4555;SDS011;2290;48.674;9.018;2023-02-21T10:29:10;1.87;;;1.10;;
4555;SDS011;2290;48.674;9.018;2023-02-21T10:31:49;1.73;;;1.10;;
4555;SDS011;2290;48.674;9.018;2023-02-21T10:34:24;1.77;;;1.10;;
4555;SDS011;2290;48.674;9.018;2023-02-21T10:36:52;1.60;;;1.00;;
4555;SDS011;2290;48.674;9.018;2023-02-21T10:39:53;1.20;;;1.10;;
4555;SDS011;2290;48.674;9.018;2023-02-21T10:42:19;1.10;;;0.93;;
4555;SDS011;2290;48.674;9.018;2023-02-21T10:44:55;2.27;;;0.90;;
4555;SDS011;2290;48.674;9.018;2023-02-21T10:47:25;1.10;;;0.90;;
4555;SDS011;2290;48.674;9.018;2023-02-21T10:49:59;1.33;;;0.90;;
4555;SDS011;2290;48.674;9.018;2023-02-21T10:52:29;1.40;;;1.00;;
4555;SDS011;2290;48.674;9.018;2023-02-21T10:55:19;1.23;;;1.10;;
4555;SDS011;2290;48.674;9.018;2023-02-21T10:57:49;1.03;;;0.90;;
4555;SDS011;2290;48.674;9.018;2023-02-21T11:03:20;2.00;;;1.07;;
4555;SDS011;2290;48.674;9.018;2023-02-21T11:05:52;1.30;;;0.80;;
4555;SDS011;2290;48.674;9.018;2023-02-21T11:08:37;2.10;;;1.10;;
4555;SDS011;2290;48.674;9.018;2023-02-21T11:11:06;2.40;;;0.97;;
4555;SDS011;2290;48.674;9.018;2023-02-21T11:13:33;1.53;;;1.37;;
4555;SDS011;2290;48.674;9.018;2023-02-21T11:18:37;1.63;;;1.10;;
4555;SDS011;2290;48.674;9.018;2023-02-21T11:21:13;1.30;;;0.90;;
4555;SDS011;2290;48.674;9.018;2023-02-21T11:23:51;2.23;;;1.00;;
4555;SDS011;2290;48.674;9.018;2023-02-21T11:26:27;1.30;;;1.20;;
4555;SDS011;2290;48.674;9.018;2023-02-21T11:28:55;1.93;;;1.10;;
4555;SDS011;2290;48.674;9.018;2023-02-21T11:31:37;1.10;;;1.00;;
4555;SDS011;2290;48.674;9.018;2023-02-21T11:34:05;1.60;;;1.10;;
4555;SDS011;2290;48.674;9.018;2023-02-21T11:36:40;1.63;;;1.30;;
4555;SDS011;2290;48.674;9.018;2023-02-21T11:41:56;2.00;;;0.87;;
4555;SDS011;2290;48.674;9.018;2023-02-21T11:44:31;1.10;;;0.80;;
4555;SDS011;2290;48.674;9.018;2023-02-21T11:47:23;1.60;;;1.00;;
4555;SDS011;2290;48.674;9.018;2023-02-21T11:50:09;1.10;;;0.80;;
4555;SDS011;2290;48.674;9.018;2023-02-21T11:55:28;1.40;;;0.70;;
4555;SDS011;2290;48.674;9.018;2023-02-21T11:58:14;1.20;;;1.10;;
4555;SDS011;2290;48.674;9.018;2023-02-21T12:00:54;1.20;;;0.90;;
4555;SDS011;2290;48.674;9.018;2023-02-21T12:09:55;1.17;;;0.80;;
4555;SDS011;2290;48.674;9.018;2023-02-21T12:12:58;1.37;;;1.10;;
4555;SDS011;2290;48.674;9.018;2023-02-21T12:15:55;1.63;;;0.80;;
4555;SDS011;2290;48.674;9.018;2023-02-21T12:27:00;1.00;;;0.87;;
4555;SDS011;2290;48.674;9.018;2023-02-21T12:47:27;1.00;;;0.90;;
4555;SDS011;2290;48.674;9.018;2023-02-21T12:53:09;1.30;;;0.80;;
4555;SDS011;2290;48.674;9.018;2023-02-21T12:55:41;1.37;;;0.90;;
4555;SDS011;2290;48.674;9.018;2023-02-21T12:58:31;1.63;;;0.90;;
4555;SDS011;2290;48.674;9.018;2023-02-21T13:01:24;1.30;;;0.90;;
4555;SDS011;2290;48.674;9.018;2023-02-21T13:10:23;1.20;;;1.10;;
4555;SDS011;2290;48.674;9.018;2023-02-21T13:13:09;1.13;;;0.80;;
4555;SDS011;2290;48.674;9.018;2023-02-21T13:15:38;1.00;;;0.80;;
4555;SDS011;2290;48.674;9.018;2023-02-21T13:20:52;1.03;;;0.90;;
4555;SDS011;2290;48.674;9.018;2023-02-21T13:26:37;1.80;;;1.00;;
4555;SDS011;2290;48.674;9.018;2023-02-21T13:29:31;1.20;;;0.87;;
4555;SDS011;2290;48.674;9.018;2023-02-21T13:32:09;1.57;;;1.20;;
4555;SDS011;2290;48.674;9.018;2023-02-21T13:34:59;1.33;;;1.00;;
4555;SDS011;2290;48.674;9.018;2023-02-21T13:37:28;1.10;;;0.90;;
4555;SDS011;2290;48.674;9.018;2023-02-21T13:40:14;2.90;;;1.00;;
4555;SDS011;2290;48.674;9.018;2023-02-21T13:42:44;1.40;;;1.00;;
4555;SDS011;2290;48.674;9.018;2023-02-21T13:45:18;1.00;;;0.90;;
4555;SDS011;2290;48.674;9.018;2023-02-21T13:58:37;2.23;;;0.93;;
4555;SDS011;2290;48.674;9.018;2023-02-21T14:01:38;2.03;;;1.10;;
4555;SDS011;2290;48.674;9.018;2023-02-21T14:07:09;1.20;;;1.00;;
4555;SDS011;2290;48.674;9.018;2023-02-21T14:09:36;1.30;;;1.20;;
4555;SDS011;2290;48.674;9.018;2023-02-21T14:12:06;1.07;;;0.90;;
4555;SDS011;2290;48.674;9.018;2023-02-21T14:14:35;1.40;;;1.00;;
4555;SDS011;2290;48.674;9.018;2023-02-21T14:19:35;1.10;;;0.90;;
4555;SDS011;2290;48.674;9.018;2023-02-21T14:22:10;1.20;;;0.90;;
4555;SDS011;2290;48.674;9.018;2023-02-21T14:24:41;1.10;;;0.80;;
4555;SDS011;2290;48.674;9.018;2023-02-21T14:29:38;2.27;;;1.00;;
4555;SDS011;2290;48.674;9.018;2023-02-21T14:48:14;1.20;;;1.07;;
4555;SDS011;2290;48.674;9.018;2023-02-21T14:51:17;1.40;;;1.20;;
4555;SDS011;2290;48.674;9.018;2023-02-21T14:57:33;1.20;;;0.93;;
4555;SDS011;2290;48.674;9.018;2023-02-21T15:06:05;1.20;;;0.97;;
4555;SDS011;2290;48.674;9.018;2023-02-21T15:08:45;1.20;;;1.10;;
4555;SDS011;2290;48.674;9.018;2023-02-21T15:11:20;2.10;;;1.20;;
4555;SDS011;2290;48.674;9.018;2023-02-21T15:17:08;1.40;;;1.10;;
4555;SDS011;2290;48.674;9.018;2023-02-21T15:19:38;1.20;;;1.00;;
4555;SDS011;2290;48.674;9.018;2023-02-21T15:24:59;1.83;;;1.37;;
4555;SDS011;2290;48.674;9.018;2023-02-21T15:27:32;1.40;;;1.03;;
4555;SDS011;2290;48.674;9.018;2023-02-21T15:30:15;1.20;;;1.00;;
4555;SDS011;2290;48.674;9.018;2023-02-21T15:32:42;1.50;;;1.13;;
4555;SDS011;2290;48.674;9.018;2023-02-21T15:35:11;2.63;;;0.93;;
4555;SDS011;2290;48.674;9.018;2023-02-21T15:37:43;1.20;;;1.00;;
4555;SDS011;2290;48.674;9.018;2023-02-21T15:40:21;1.20;;;1.00;;
4555;SDS011;2290;48.674;9.018;2023-02-21T15:42:50;1.10;;;0.93;;
4555;SDS011;2290;48.674;9.018;2023-02-21T15:45:42;1.60;;;1.00;;
4555;SDS011;2290;48.674;9.018;2023-02-21T15:48:08;1.60;;;1.10;;
4555;SDS011;2290;48.674;9.018;2023-02-21T15:50:45;1.30;;;1.13;;
4555;SDS011;2290;48.674;9.018;2023-02-21T15:53:21;3.50;;;1.33;;
4555;SDS011;2290;48.674;9.018;2023-02-21T15:55:50;1.33;;;1.23;;
4555;SDS011;2290;48.674;9.018;2023-02-21T16:00:47;1.87;;;1.10;;
4555;SDS011;2290;48.674;9.018;2023-02-21T16:03:34;1.67;;;1.07;;
4555;SDS011;2290;48.674;9.018;2023-02-21T16:08:57;1.40;;;1.30;;
4555;SDS011;2290;48.674;9.018;2023-02-21T16:11:43;1.60;;;1.00;;
4555;SDS011;2290;48.674;9.018;2023-02-21T16:14:18;1.57;;;1.10;;
4555;SDS011;2290;48.674;9.018;2023-02-21T16:16:48;2.37;;;1.37;;
4555;SDS011;2290;48.674;9.018;2023-02-21T16:19:20;1.80;;;1.20;;
4555;SDS011;2290;48.674;9.018;2023-02-21T16:21:48;1.87;;;1.20;;
4555;SDS011;2290;48.674;9.018;2023-02-21T16:24:28;2.30;;;1.50;;
4555;SDS011;2290;48.674;9.018;2023-02-21T16:27:07;4.10;;;1.43;;
4555;SDS011;2290;48.674;9.018;2023-02-21T16:29:35;5.50;;;1.70;;
4555;SDS011;2290;48.674;9.018;2023-02-21T16:32:02;4.17;;;1.50;;
4555;SDS011;2290;48.674;9.018;2023-02-21T16:34:29;3.10;;;1.40;;
4555;SDS011;2290;48.674;9.018;2023-02-21T16:37:01;2.80;;;1.90;;
4555;SDS011;2290;48.674;9.018;2023-02-21T16:39:28;3.13;;;1.77;;
4555;SDS011;2290;48.674;9.018;2023-02-21T16:41:55;2.90;;;1.50;;
4555;SDS011;2290;48.674;9.018;2023-02-21T16:44:21;2.00;;;1.57;;
4555;SDS011;2290;48.674;9.018;2023-02-21T16:46:46;3.00;;;1.57;;
4555;SDS011;2290;48.674;9.018;2023-02-21T16:49:15;1.70;;;1.60;;
4555;SDS011;2290;48.674;9.018;2023-02-21T16:51:40;2.40;;;2.20;;
4555;SDS011;2290;48.674;9.018;2023-02-21T16:54:07;3.60;;;1.80;;
4555;SDS011;2290;48.674;9.018;2023-02-21T16:56:34;4.03;;;2.13;;
4555;SDS011;2290;48.674;9.018;2023-02-21T16:59:03;2.27;;;1.70;;
4555;SDS011;2290;48.674;9.018;2023-02-21T17:01:34;3.40;;;2.50;;
4555;SDS011;2290;48.674;9.018;2023-02-21T17:04:00;2.70;;;1.90;;
4555;SDS011;2290;48.674;9.018;2023-02-21T17:06:32;3.70;;;1.80;;
4555;SDS011;2290;48.674;9.018;2023-02-21T17:08:58;3.30;;;2.03;;
4555;SDS011;2290;48.674;9.018;2023-02-21T17:11:24;2.90;;;1.90;;
4555;SDS011;2290;48.674;9.018;2023-02-21T17:13:50;6.77;;;1.70;;
4555;SDS011;2290;48.674;9.018;2023-02-21T17:16:17;3.40;;;1.60;;
4555;SDS011;2290;48.674;9.018;2023-02-21T17:18:43;2.10;;;1.83;;
4555;SDS011;2290;48.674;9.018;2023-02-21T17:21:09;3.33;;;1.57;;
4555;SDS011;2290;48.674;9.018;2023-02-21T17:23:35;3.50;;;1.90;;
4555;SDS011;2290;48.674;9.018;2023-02-21T17:26:01;4.23;;;1.90;;
4555;SDS011;2290;48.674;9.018;2023-02-21T17:28:27;3.13;;;2.17;;
4555;SDS011;2290;48.674;9.018;2023-02-21T17:30:53;2.83;;;1.80;;
4555;SDS011;2290;48.674;9.018;2023-02-21T17:33:19;2.03;;;1.50;;
4555;SDS011;2290;48.674;9.018;2023-02-21T17:35:45;3.23;;;1.90;;
4555;SDS011;2290;48.674;9.018;2023-02-21T17:38:12;4.37;;;2.20;;
4555;SDS011;2290;48.674;9.018;2023-02-21T17:40:37;2.20;;;1.50;;
4555;SDS011;2290;48.674;9.018;2023-02-21T17:43:04;3.10;;;1.70;;
4555;SDS011;2290;48.674;9.018;2023-02-21T17:45:34;2.40;;;1.70;;
4555;SDS011;2290;48.674;9.018;2023-02-21T17:48:04;1.90;;;1.70;;
4555;SDS011;2290;48.674;9.018;2023-02-21T17:50:31;3.60;;;1.87;;
4555;SDS011;2290;48.674;9.018;2023-02-21T17:52:57;4.20;;;2.07;;
4555;SDS011;2290;48.674;9.018;2023-02-21T17:55:24;1.97;;;1.70;;
4555;SDS011;2290;48.674;9.018;2023-02-21T17:57:50;2.90;;;2.00;;
4555;SDS011;2290;48.674;9.018;2023-02-21T18:00:19;2.17;;;1.80;;
4555;SDS011;2290;48.674;9.018;2023-02-21T18:02:51;3.40;;;2.40;;
4555;SDS011;2290;48.674;9.018;2023-02-21T18:05:18;2.30;;;1.90;;
4555;SDS011;2290;48.674;9.018;2023-02-21T18:07:45;4.40;;;1.97;;
4555;SDS011;2290;48.674;9.018;2023-02-21T18:10:18;2.07;;;1.77;;
4555;SDS011;2290;48.674;9.018;2023-02-21T18:12:47;2.13;;;1.93;;
4555;SDS011;2290;48.674;9.018;2023-02-21T18:15:13;3.00;;;2.10;;
4555;SDS011;2290;48.674;9.018;2023-02-21T18:17:41;3.30;;;2.27;;